Time;durP1;ratioP1;P1;durP2;ratioP2;P2;SDS_P1;SDS_P2;PMS_P1;PMS_P2;Temp;Humidity;BMP_temperature;BMP_pressure;BME280_temperature;BME280_humidity;BME280_pressure;Samples;Min_cycle;Max_cycle;Signal;HPM_P1;HPM_P2
2022/08/20 00:01:02;;;;;;;;;;;22.40;99.90;;;;;;5073310;28;20006;-74
2022/08/20 00:03:30;;;;;;;;;;;22.70;99.90;;;;;;5091658;28;20464;-76
2022/08/20 00:06:00;;;;;;;;;;;22.80;99.90;;;;;;5075381;28;19912;-75
2022/08/20 00:08:26;;;;;;;;;;;23.00;99.90;;;;;;5074863;28;20031;-74
2022/08/20 00:10:52;;;;;;;;;;;23.10;99.90;;;;;;5074506;28;19917;-74
2022/08/20 00:13:23;;;;;;;;;;;22.80;99.90;;;;;;5075078;28;19916;-76
2022/08/20 00:15:49;;;;;;;;;;;22.70;99.90;;;;;;5075320;28;19916;-74
2022/08/20 00:18:15;;;;;;;;;;;22.70;99.90;;;;;;5078242;28;19916;-75
2022/08/20 00:20:43;;;;;;;;;;;22.60;99.90;;;;;;5072314;28;19963;-75
2022/08/20 00:23:09;;;;;;;;;;;22.50;99.90;;;;;;5004973;28;2010673;-75
2022/08/20 00:25:35;;;;;;;;;;;22.40;99.90;;;;;;5094631;28;19917;-76
2022/08/20 00:28:02;;;;;;;;;;;22.50;99.90;;;;;;5080382;28;19919;-74
2022/08/20 00:30:28;;;;;;;;;;;22.60;99.90;;;;;;5102194;28;20289;-75
2022/08/20 00:32:57;;;;;;;;;;;22.70;99.90;;;;;;5081157;28;19908;-73
2022/08/20 00:35:24;;;;;;;;;;;22.80;99.90;;;;;;5102350;28;19954;-72
2022/08/20 00:37:50;;;;;;;;;;;22.70;99.90;;;;;;5092429;28;19909;-73
2022/08/20 00:40:17;;;;;;;;;;;22.60;99.90;;;;;;5091728;28;20292;-74
2022/08/20 00:42:45;;;;;;;;;;;22.60;99.90;;;;;;5089733;28;19939;-74
2022/08/20 00:45:11;;;;;;;;;;;22.60;99.90;;;;;;5078690;28;20446;-72
2022/08/20 00:47:43;;;;;;;;;;;22.70;99.90;;;;;;5074380;28;20383;-72
2022/08/20 00:50:11;;;;;;;;;;;22.60;99.90;;;;;;5087045;28;20030;-72
2022/08/20 00:52:37;;;;;;;;;;;22.40;99.90;;;;;;5076479;28;20007;-71
2022/08/20 00:55:04;;;;;;;;;;;22.30;99.90;;;;;;5077272;28;20338;-72
2022/08/20 00:57:33;;;;;;;;;;;22.30;99.90;;;;;;5078115;28;19913;-72
2022/08/20 01:00:01;;;;;;;;;;;22.40;99.90;;;;;;5076693;28;19912;-72
2022/08/20 01:02:27;;;;;;;;;;;22.40;99.90;;;;;;5076588;28;19916;-72
2022/08/20 01:04:54;;;;;;;;;;;22.40;99.90;;;;;;5076822;28;20027;-73
2022/08/20 01:07:31;;;;;;;;;;;22.40;99.90;;;;;;5077224;28;19951;-73
2022/08/20 01:09:57;;;;;;;;;;;22.40;99.90;;;;;;5073429;28;19923;-76
2022/08/20 01:12:24;;;;;;;;;;;22.60;99.90;;;;;;5073673;28;19912;-73
2022/08/20 01:14:49;;;;;;;;;;;22.70;99.90;;;;;;5078503;28;20385;-74
2022/08/20 01:17:17;;;;;;;;;;;22.70;99.90;;;;;;5103986;28;20001;-73
2022/08/20 01:19:46;;;;;;;;;;;22.60;99.90;;;;;;5087541;28;19920;-73
2022/08/20 01:25:02;;;;;;;;;;;22.30;99.90;;;;;;5082924;28;20029;-73
2022/08/20 01:27:29;;;;;;;;;;;22.10;99.90;;;;;;5075354;28;20050;-74
2022/08/20 01:29:55;;;;;;;;;;;22.10;99.90;;;;;;5077209;28;19916;-73
2022/08/20 01:32:21;;;;;;;;;;;22.00;99.90;;;;;;5076980;28;19923;-74
2022/08/20 01:34:46;;;;;;;;;;;22.20;99.90;;;;;;5077671;28;19916;-73
2022/08/20 01:37:12;;;;;;;;;;;22.30;99.90;;;;;;5079908;28;19986;-73
2022/08/20 01:39:38;;;;;;;;;;;22.40;99.90;;;;;;5080102;28;19912;-74
2022/08/20 01:42:11;;;;;;;;;;;22.40;99.90;;;;;;5086671;28;19924;-72
2022/08/20 01:44:37;;;;;;;;;;;22.20;99.90;;;;;;5104234;27;19912;-74
2022/08/20 01:47:32;;;;;;;;;;;22.00;99.90;;;;;;5079458;28;20350;-73
2022/08/20 01:50:05;;;;;;;;;;;21.90;99.90;;;;;;5042847;28;19963;-73
2022/08/20 01:52:50;;;;;;;;;;;21.90;99.90;;;;;;5074793;28;20417;-74
2022/08/20 01:55:15;;;;;;;;;;;22.10;99.90;;;;;;5079857;28;19925;-73
2022/08/20 01:57:41;;;;;;;;;;;22.40;99.90;;;;;;5077794;28;19981;-73
2022/08/20 02:00:09;;;;;;;;;;;22.40;99.90;;;;;;5078740;28;19917;-74
2022/08/20 02:02:35;;;;;;;;;;;22.40;99.90;;;;;;5078466;28;20011;-74
2022/08/20 02:05:01;;;;;;;;;;;22.40;99.90;;;;;;5079021;28;20011;-74
2022/08/20 02:07:28;;;;;;;;;;;22.40;99.90;;;;;;5075486;28;19916;-73
2022/08/20 02:09:54;;;;;;;;;;;22.40;99.90;;;;;;5080066;28;19936;-73
2022/08/20 02:12:19;;;;;;;;;;;22.50;99.90;;;;;;5077990;28;19912;-73
2022/08/20 02:14:50;;;;;;;;;;;22.40;99.90;;;;;;5059195;28;20292;-72
2022/08/20 02:17:16;;;;;;;;;;;22.40;99.90;;;;;;5079942;28;19963;-74
2022/08/20 02:19:47;;;;;;;;;;;22.50;99.90;;;;;;5061785;28;19916;-73
2022/08/20 02:22:22;;;;;;;;;;;22.60;99.90;;;;;;5083324;28;19915;-72
2022/08/20 02:24:47;;;;;;;;;;;22.60;99.90;;;;;;5079289;28;19982;-73
2022/08/20 02:27:13;;;;;;;;;;;22.70;99.90;;;;;;5079358;28;19966;-73
2022/08/20 02:29:39;;;;;;;;;;;22.50;99.90;;;;;;5079046;28;19920;-73
2022/08/20 02:32:06;;;;;;;;;;;22.30;99.90;;;;;;5077352;28;19911;-73
2022/08/20 02:34:35;;;;;;;;;;;22.10;99.90;;;;;;5076434;28;19982;-72
2022/08/20 02:37:01;;;;;;;;;;;21.90;99.90;;;;;;5077603;28;19920;-73
2022/08/20 02:39:27;;;;;;;;;;;21.90;99.90;;;;;;5071675;28;20401;-74
2022/08/20 02:41:52;;;;;;;;;;;21.90;99.90;;;;;;5075945;28;20122;-73
2022/08/20 02:44:19;;;;;;;;;;;22.00;99.90;;;;;;5077409;28;19916;-75
2022/08/20 02:46:46;;;;;;;;;;;22.10;99.90;;;;;;5073408;28;19913;-74
2022/08/20 02:49:12;;;;;;;;;;;22.00;99.90;;;;;;5078761;28;20273;-74
2022/08/20 02:51:38;;;;;;;;;;;21.90;99.90;;;;;;5078238;28;19923;-74
2022/08/20 02:54:03;;;;;;;;;;;21.90;99.90;;;;;;5075871;28;19919;-74
2022/08/20 02:56:29;;;;;;;;;;;22.00;99.90;;;;;;5063552;28;19931;-74
2022/08/20 02:58:54;;;;;;;;;;;22.00;99.90;;;;;;5076927;28;19912;-73
2022/08/20 03:01:20;;;;;;;;;;;22.00;99.90;;;;;;5058325;28;20420;-74
2022/08/20 03:03:45;;;;;;;;;;;22.00;99.90;;;;;;5079926;28;19916;-74
2022/08/20 03:06:12;;;;;;;;;;;22.40;99.90;;;;;;5074344;28;19920;-74
2022/08/20 03:08:40;;;;;;;;;;;22.40;99.90;;;;;;5063394;28;19922;-73
2022/08/20 03:11:06;;;;;;;;;;;22.20;99.90;;;;;;5064781;28;19971;-73
2022/08/20 03:13:32;;;;;;;;;;;22.00;99.90;;;;;;5078264;28;20405;-74
2022/08/20 03:15:59;;;;;;;;;;;22.10;99.90;;;;;;5078619;28;19919;-75
2022/08/20 03:18:26;;;;;;;;;;;22.20;99.90;;;;;;5073972;28;19940;-73
2022/08/20 03:20:52;;;;;;;;;;;22.40;99.90;;;;;;5077429;28;19927;-73
2022/08/20 03:23:18;;;;;;;;;;;22.60;99.90;;;;;;5076383;28;19919;-74
2022/08/20 03:25:45;;;;;;;;;;;22.60;99.90;;;;;;5075663;28;19916;-73
2022/08/20 03:28:10;;;;;;;;;;;22.60;99.90;;;;;;5077850;28;19951;-74
2022/08/20 03:30:37;;;;;;;;;;;22.40;99.90;;;;;;5077161;28;20362;-73
2022/08/20 03:33:02;;;;;;;;;;;22.30;99.90;;;;;;5072245;28;19927;-73
2022/08/20 03:35:29;;;;;;;;;;;22.20;99.90;;;;;;5081300;28;19916;-74
2022/08/20 03:37:54;;;;;;;;;;;22.20;99.90;;;;;;5107364;28;19947;-74
2022/08/20 03:40:22;;;;;;;;;;;22.10;99.90;;;;;;5078260;28;19970;-73
2022/08/20 03:42:47;;;;;;;;;;;22.20;99.90;;;;;;5074932;28;19920;-74
2022/08/20 03:45:13;;;;;;;;;;;22.20;99.90;;;;;;5062168;28;20266;-73
2022/08/20 03:47:40;;;;;;;;;;;22.30;99.90;;;;;;5075773;28;19919;-74
2022/08/20 03:50:07;;;;;;;;;;;22.20;99.90;;;;;;5074685;28;20345;-74
2022/08/20 03:52:33;;;;;;;;;;;22.00;99.90;;;;;;5072855;28;19912;-74
2022/08/20 03:54:58;;;;;;;;;;;21.90;99.90;;;;;;5076322;28;19919;-73
2022/08/20 03:57:24;;;;;;;;;;;22.00;99.90;;;;;;5083985;28;19934;-73
2022/08/20 03:59:50;;;;;;;;;;;22.00;99.90;;;;;;5094951;28;19954;-73
2022/08/20 04:02:16;;;;;;;;;;;21.90;99.90;;;;;;5078065;28;19923;-74
2022/08/20 04:04:42;;;;;;;;;;;21.80;99.90;;;;;;5073777;28;20271;-73
2022/08/20 04:07:11;;;;;;;;;;;21.70;99.90;;;;;;5062652;28;19923;-73
2022/08/20 04:09:38;;;;;;;;;;;21.50;99.90;;;;;;5071112;28;19923;-74
2022/08/20 04:12:04;;;;;;;;;;;21.40;99.90;;;;;;5076733;28;19928;-74
2022/08/20 04:14:30;;;;;;;;;;;21.40;99.90;;;;;;5073510;28;19935;-73
2022/08/20 04:16:56;;;;;;;;;;;21.60;99.90;;;;;;5059819;28;20595;-74
2022/08/20 04:19:22;;;;;;;;;;;21.80;99.90;;;;;;5070225;28;20712;-73
2022/08/20 04:21:47;;;;;;;;;;;21.80;99.90;;;;;;5071892;28;19969;-73
2022/08/20 04:24:14;;;;;;;;;;;21.70;99.90;;;;;;5073140;28;19912;-74
2022/08/20 04:26:41;;;;;;;;;;;21.80;99.90;;;;;;5074716;28;20017;-74
2022/08/20 04:29:07;;;;;;;;;;;21.80;99.90;;;;;;5069629;28;20418;-74
2022/08/20 04:31:33;;;;;;;;;;;21.70;99.90;;;;;;5074681;28;20065;-74
2022/08/20 04:34:00;;;;;;;;;;;21.60;99.90;;;;;;5075045;28;19975;-72
2022/08/20 04:36:26;;;;;;;;;;;21.80;99.90;;;;;;5073545;28;19912;-73
2022/08/20 04:38:51;;;;;;;;;;;21.90;99.90;;;;;;5075883;28;19920;-75
2022/08/20 04:41:18;;;;;;;;;;;21.90;99.90;;;;;;5082398;28;19919;-73
2022/08/20 04:43:44;;;;;;;;;;;22.00;99.90;;;;;;5081914;28;19936;-75
2022/08/20 04:46:09;;;;;;;;;;;22.10;99.90;;;;;;5076481;28;19920;-72
2022/08/20 04:48:37;;;;;;;;;;;22.10;99.90;;;;;;5074938;28;19912;-73
2022/08/20 04:51:03;;;;;;;;;;;22.10;99.90;;;;;;5086309;28;19920;-74
2022/08/20 04:53:29;;;;;;;;;;;22.30;99.90;;;;;;5088783;28;19912;-75
2022/08/20 04:55:56;;;;;;;;;;;22.20;99.90;;;;;;5076028;28;19912;-76
2022/08/20 04:58:24;;;;;;;;;;;22.20;99.90;;;;;;5076668;28;19912;-75
2022/08/20 05:00:51;;;;;;;;;;;22.20;99.90;;;;;;5079954;28;19966;-75
2022/08/20 05:03:17;;;;;;;;;;;22.20;99.90;;;;;;5079744;28;19915;-74
2022/08/20 05:05:46;;;;;;;;;;;22.10;99.90;;;;;;5078836;28;20270;-74
2022/08/20 05:08:12;;;;;;;;;;;22.00;99.90;;;;;;5075674;28;20003;-75
2022/08/20 05:10:39;;;;;;;;;;;22.00;99.90;;;;;;5078744;28;19939;-76
2022/08/20 05:13:05;;;;;;;;;;;22.10;99.90;;;;;;5066901;28;19920;-74
2022/08/20 05:15:31;;;;;;;;;;;22.20;99.90;;;;;;5080552;28;19960;-76
2022/08/20 05:18:02;;;;;;;;;;;22.20;99.90;;;;;;5079781;28;19919;-76
2022/08/20 05:20:30;;;;;;;;;;;22.10;99.90;;;;;;5072447;28;19912;-75
2022/08/20 05:22:56;;;;;;;;;;;22.10;99.90;;;;;;5080948;28;19917;-74
2022/08/20 05:25:22;;;;;;;;;;;22.00;99.90;;;;;;5075338;28;19913;-74
2022/08/20 05:27:48;;;;;;;;;;;21.80;99.90;;;;;;5076735;28;19958;-75
2022/08/20 05:30:14;;;;;;;;;;;21.60;99.90;;;;;;5079288;28;20335;-75
2022/08/20 05:32:40;;;;;;;;;;;21.50;99.90;;;;;;5063057;28;19917;-75
2022/08/20 05:35:08;;;;;;;;;;;21.60;99.90;;;;;;5075138;28;19938;-75
2022/08/20 05:37:35;;;;;;;;;;;21.80;99.90;;;;;;5080275;28;19926;-75
2022/08/20 05:40:00;;;;;;;;;;;21.90;99.90;;;;;;5076870;28;19919;-75
2022/08/20 05:42:27;;;;;;;;;;;22.00;99.90;;;;;;5076329;28;19916;-74
2022/08/20 05:44:53;;;;;;;;;;;22.10;99.90;;;;;;5084879;28;19951;-74
2022/08/20 05:47:19;;;;;;;;;;;22.10;99.90;;;;;;5080951;28;19959;-75
2022/08/20 05:49:45;;;;;;;;;;;22.10;99.90;;;;;;5078942;28;19924;-76
2022/08/20 05:52:11;;;;;;;;;;;22.30;99.90;;;;;;5080959;28;19921;-75
2022/08/20 05:54:37;;;;;;;;;;;22.50;99.90;;;;;;5078745;28;19931;-76
2022/08/20 05:57:03;;;;;;;;;;;22.60;99.90;;;;;;5077744;28;19913;-76
2022/08/20 05:59:28;;;;;;;;;;;22.70;99.90;;;;;;5077902;28;19912;-76
2022/08/20 06:01:54;;;;;;;;;;;22.80;99.90;;;;;;5077851;28;20006;-75
2022/08/20 06:04:30;;;;;;;;;;;22.80;99.90;;;;;;5086808;28;19923;-74
2022/08/20 06:07:00;;;;;;;;;;;22.90;99.90;;;;;;5082227;28;19912;-75
2022/08/20 06:09:26;;;;;;;;;;;23.00;99.90;;;;;;5075596;28;19916;-75
2022/08/20 06:11:52;;;;;;;;;;;23.00;99.90;;;;;;5077879;28;19927;-75
2022/08/20 06:14:19;;;;;;;;;;;23.00;99.90;;;;;;5078659;28;19919;-75
2022/08/20 06:16:45;;;;;;;;;;;23.20;99.90;;;;;;5076229;28;19978;-71
2022/08/20 06:19:10;;;;;;;;;;;23.20;99.90;;;;;;5078769;28;19916;-73
2022/08/20 06:21:36;;;;;;;;;;;23.30;99.90;;;;;;5077181;28;19955;-74
2022/08/20 06:24:02;;;;;;;;;;;23.40;99.90;;;;;;5080156;28;19920;-71
2022/08/20 06:26:27;;;;;;;;;;;23.50;99.90;;;;;;5076961;28;19927;-71
2022/08/20 06:28:53;;;;;;;;;;;23.60;99.90;;;;;;5081173;28;19913;-74
2022/08/20 06:31:20;;;;;;;;;;;23.60;99.90;;;;;;5081313;28;20309;-74
2022/08/20 06:33:46;;;;;;;;;;;23.70;99.90;;;;;;5076358;28;20319;-72
2022/08/20 06:36:11;;;;;;;;;;;23.70;99.90;;;;;;5076963;28;19923;-71
2022/08/20 06:38:37;;;;;;;;;;;23.80;99.90;;;;;;5078799;28;19924;-71
2022/08/20 06:41:03;;;;;;;;;;;23.80;99.90;;;;;;5077274;28;20005;-72
2022/08/20 06:43:30;;;;;;;;;;;24.00;99.90;;;;;;5076719;28;19970;-71
2022/08/20 06:45:56;;;;;;;;;;;24.10;99.90;;;;;;5075465;28;19927;-74
2022/08/20 06:48:22;;;;;;;;;;;24.20;99.90;;;;;;5074813;28;20321;-70
2022/08/20 06:50:48;;;;;;;;;;;24.40;99.90;;;;;;5088138;28;19920;-72
2022/08/20 06:53:15;;;;;;;;;;;24.50;99.90;;;;;;5074104;28;19924;-71
2022/08/20 06:55:43;;;;;;;;;;;24.60;99.90;;;;;;5076430;28;20446;-71
2022/08/20 06:58:10;;;;;;;;;;;24.70;99.90;;;;;;5075564;28;21045;-70
2022/08/20 07:00:36;;;;;;;;;;;24.70;99.90;;;;;;5075288;28;19920;-70
2022/08/20 07:03:03;;;;;;;;;;;24.70;99.90;;;;;;5080055;28;19919;-73
2022/08/20 07:05:30;;;;;;;;;;;24.60;99.90;;;;;;5078562;28;19920;-71
2022/08/20 07:07:55;;;;;;;;;;;24.40;99.90;;;;;;5078304;28;19987;-70
2022/08/20 07:10:21;;;;;;;;;;;24.30;99.90;;;;;;5080574;28;19919;-72
2022/08/20 07:12:49;;;;;;;;;;;24.20;99.90;;;;;;5082628;28;20054;-72
2022/08/20 07:15:14;;;;;;;;;;;24.20;99.90;;;;;;5081050;28;19931;-71
2022/08/20 07:17:40;;;;;;;;;;;24.20;99.90;;;;;;5078151;28;20320;-73
2022/08/20 07:20:08;;;;;;;;;;;24.10;99.90;;;;;;5079666;28;20365;-73
2022/08/20 07:22:36;;;;;;;;;;;24.00;99.90;;;;;;5079775;28;19947;-72
2022/08/20 07:25:03;;;;;;;;;;;24.00;99.90;;;;;;5077236;28;19916;-72
2022/08/20 07:27:29;;;;;;;;;;;24.00;99.90;;;;;;5082877;28;20274;-73
2022/08/20 07:32:38;;;;;;;;;;;24.00;99.90;;;;;;5077947;28;19923;-72
2022/08/20 07:35:08;;;;;;;;;;;24.10;99.90;;;;;;5078375;28;19916;-72
2022/08/20 07:37:41;;;;;;;;;;;24.20;99.90;;;;;;5078633;28;19938;-72
2022/08/20 07:40:10;;;;;;;;;;;24.30;99.90;;;;;;5062571;28;19919;-72
2022/08/20 07:42:38;;;;;;;;;;;24.50;99.90;;;;;;5077860;28;19969;-72
2022/08/20 07:45:09;;;;;;;;;;;24.50;99.90;;;;;;5078606;28;19978;-72
2022/08/20 07:47:39;;;;;;;;;;;24.50;99.90;;;;;;5078622;28;20349;-72
2022/08/20 07:50:05;;;;;;;;;;;24.60;99.90;;;;;;5079062;28;19928;-72
2022/08/20 07:52:30;;;;;;;;;;;24.60;99.90;;;;;;5080783;28;19927;-72
2022/08/20 07:54:56;;;;;;;;;;;24.60;99.90;;;;;;5081420;28;19927;-73
2022/08/20 07:57:21;;;;;;;;;;;24.60;99.90;;;;;;5079041;28;19976;-72
2022/08/20 07:59:47;;;;;;;;;;;24.60;99.90;;;;;;5087462;28;19996;-73
2022/08/20 08:02:13;;;;;;;;;;;24.60;99.90;;;;;;5083892;28;19938;-72
2022/08/20 08:04:38;;;;;;;;;;;24.70;99.90;;;;;;5093826;28;19934;-73
2022/08/20 08:07:04;;;;;;;;;;;24.90;99.90;;;;;;5082664;28;19912;-74
2022/08/20 08:09:31;;;;;;;;;;;25.00;99.90;;;;;;5100463;28;19958;-73
2022/08/20 08:11:57;;;;;;;;;;;25.20;99.90;;;;;;5086695;28;20595;-75
2022/08/20 08:14:25;;;;;;;;;;;25.30;99.90;;;;;;5084361;28;19948;-74
2022/08/20 08:16:56;;;;;;;;;;;25.30;99.90;;;;;;5092145;28;19992;-74
2022/08/20 08:19:22;;;;;;;;;;;25.30;99.90;;;;;;5094217;28;19919;-75
2022/08/20 08:21:48;;;;;;;;;;;25.30;99.90;;;;;;5084803;28;19916;-72
2022/08/20 08:24:14;;;;;;;;;;;25.40;99.90;;;;;;5096396;28;20349;-72
2022/08/20 08:26:40;;;;;;;;;;;25.50;99.90;;;;;;5083609;28;19999;-73
2022/08/20 08:29:06;;;;;;;;;;;25.50;99.90;;;;;;5093407;28;20360;-73
2022/08/20 08:31:32;;;;;;;;;;;25.50;99.90;;;;;;5086493;28;19912;-72
2022/08/20 08:33:58;;;;;;;;;;;25.30;99.90;;;;;;5095683;28;19920;-72
2022/08/20 08:36:25;;;;;;;;;;;25.10;99.90;;;;;;5086830;28;19920;-73
2022/08/20 08:38:52;;;;;;;;;;;25.00;99.90;;;;;;5067736;28;19916;-73
2022/08/20 08:41:28;;;;;;;;;;;25.00;99.90;;;;;;5092216;27;19912;-73
2022/08/20 08:43:58;;;;;;;;;;;25.00;99.90;;;;;;5064029;28;19916;-73
2022/08/20 08:46:25;;;;;;;;;;;25.10;99.90;;;;;;5079002;28;20102;-74
2022/08/20 08:48:53;;;;;;;;;;;25.20;99.90;;;;;;5089617;28;20360;-73
2022/08/20 08:51:26;;;;;;;;;;;25.30;99.90;;;;;;5095784;28;19974;-73
2022/08/20 08:53:53;;;;;;;;;;;25.50;99.90;;;;;;5094768;28;19990;-72
2022/08/20 08:56:19;;;;;;;;;;;25.70;99.90;;;;;;5085954;28;19912;-73
2022/08/20 08:58:45;;;;;;;;;;;25.80;99.90;;;;;;5083955;28;19919;-73
2022/08/20 09:01:12;;;;;;;;;;;25.80;99.90;;;;;;5088518;28;19911;-72
2022/08/20 09:03:42;;;;;;;;;;;25.80;99.90;;;;;;5093034;28;19928;-73
2022/08/20 09:06:11;;;;;;;;;;;25.80;99.90;;;;;;5086565;28;19989;-73
2022/08/20 09:08:46;;;;;;;;;;;25.90;99.90;;;;;;5096553;28;20377;-73
2022/08/20 09:11:12;;;;;;;;;;;25.90;99.90;;;;;;5087362;28;19997;-74
2022/08/20 09:13:38;;;;;;;;;;;25.90;99.90;;;;;;5065288;28;19912;-73
2022/08/20 09:16:03;;;;;;;;;;;25.90;99.90;;;;;;5080857;28;19963;-72
2022/08/20 09:18:29;;;;;;;;;;;25.90;99.90;;;;;;5088055;28;20369;-73
2022/08/20 09:20:55;;;;;;;;;;;25.90;99.90;;;;;;5083720;28;20382;-73
2022/08/20 09:23:20;;;;;;;;;;;25.90;99.90;;;;;;5097102;28;19920;-73
2022/08/20 09:25:46;;;;;;;;;;;25.90;99.90;;;;;;5077025;28;20625;-74
2022/08/20 09:28:12;;;;;;;;;;;26.00;99.90;;;;;;5092247;28;19926;-74
2022/08/20 09:30:37;;;;;;;;;;;26.10;99.90;;;;;;5098228;28;20017;-73
2022/08/20 09:33:03;;;;;;;;;;;26.10;99.90;;;;;;5090438;28;19947;-73
2022/08/20 09:35:29;;;;;;;;;;;26.10;99.90;;;;;;5092835;28;19958;-73
2022/08/20 09:37:54;;;;;;;;;;;26.20;99.90;;;;;;5074611;28;19915;-73
2022/08/20 09:40:20;;;;;;;;;;;26.20;99.90;;;;;;5091932;28;19916;-73
2022/08/20 09:42:46;;;;;;;;;;;26.30;99.90;;;;;;5074559;28;20372;-72
2022/08/20 09:45:12;;;;;;;;;;;26.50;99.90;;;;;;5082379;28;19919;-72
2022/08/20 09:47:38;;;;;;;;;;;26.40;99.90;;;;;;5089667;28;20280;-72
2022/08/20 09:50:04;;;;;;;;;;;26.40;99.90;;;;;;5087533;28;20589;-72
2022/08/20 09:52:38;;;;;;;;;;;26.50;99.90;;;;;;5096563;28;19959;-72
2022/08/20 09:55:12;;;;;;;;;;;26.60;99.90;;;;;;5088156;28;19920;-71
2022/08/20 09:57:38;;;;;;;;;;;26.70;99.90;;;;;;5090132;28;19915;-72
2022/08/20 10:00:12;;;;;;;;;;;26.80;99.90;;;;;;5087128;28;19920;-73
2022/08/20 10:02:38;;;;;;;;;;;26.80;99.90;;;;;;5070440;28;19942;-71
2022/08/20 10:05:04;;;;;;;;;;;26.80;99.90;;;;;;5085675;28;19916;-73
2022/08/20 10:07:29;;;;;;;;;;;26.80;99.90;;;;;;5087333;28;19912;-73
2022/08/20 10:09:55;;;;;;;;;;;27.00;99.90;;;;;;5093381;28;19908;-72
2022/08/20 10:12:20;;;;;;;;;;;27.20;99.90;;;;;;5080498;28;19923;-71
2022/08/20 10:14:46;;;;;;;;;;;27.20;99.90;;;;;;5094778;28;19938;-72
2022/08/20 10:17:12;;;;;;;;;;;27.20;99.90;;;;;;5090057;28;19920;-73
2022/08/20 10:19:37;;;;;;;;;;;27.10;99.90;;;;;;5093778;28;20025;-72
2022/08/20 10:22:03;;;;;;;;;;;27.20;99.90;;;;;;5092713;28;21493;-73
2022/08/20 10:24:29;;;;;;;;;;;26.90;99.90;;;;;;5075684;28;19912;-73
2022/08/20 10:26:59;;;;;;;;;;;26.70;99.90;;;;;;5088865;28;19912;-73
2022/08/20 10:29:25;;;;;;;;;;;26.60;99.90;;;;;;5090750;28;20003;-72
2022/08/20 10:31:51;;;;;;;;;;;26.40;99.90;;;;;;5090902;28;19912;-74
2022/08/20 10:34:17;;;;;;;;;;;26.40;99.90;;;;;;5100197;28;19937;-74
2022/08/20 10:36:42;;;;;;;;;;;26.40;99.90;;;;;;5076423;28;20408;-73
2022/08/20 10:39:08;;;;;;;;;;;26.40;99.90;;;;;;5110474;28;20002;-73
2022/08/20 10:41:33;;;;;;;;;;;26.40;99.90;;;;;;5102134;28;19922;-73
2022/08/20 10:43:59;;;;;;;;;;;26.40;99.90;;;;;;5099204;28;19912;-72
2022/08/20 10:46:24;;;;;;;;;;;26.50;99.90;;;;;;5103028;28;19923;-71
2022/08/20 10:48:50;;;;;;;;;;;26.60;99.90;;;;;;5100451;28;19966;-72
2022/08/20 10:51:16;;;;;;;;;;;26.70;99.90;;;;;;5092250;28;19927;-73
2022/08/20 10:53:42;;;;;;;;;;;26.80;99.90;;;;;;5100573;28;19973;-71
2022/08/20 10:56:07;;;;;;;;;;;27.10;99.90;;;;;;5077314;28;19912;-72
2022/08/20 10:58:33;;;;;;;;;;;27.20;99.90;;;;;;5092041;28;19919;-73
2022/08/20 11:00:58;;;;;;;;;;;27.10;99.90;;;;;;5092559;28;20376;-72
2022/08/20 11:03:24;;;;;;;;;;;27.30;99.90;;;;;;5099331;28;20050;-72
2022/08/20 11:05:49;;;;;;;;;;;27.50;99.90;;;;;;5096715;28;20010;-73
2022/08/20 11:08:15;;;;;;;;;;;27.80;99.90;;;;;;5093417;28;19912;-73
2022/08/20 11:10:41;;;;;;;;;;;28.10;99.90;;;;;;5095506;28;19919;-72
2022/08/20 11:13:06;;;;;;;;;;;28.30;99.90;;;;;;5103296;28;19956;-73
2022/08/20 11:15:34;;;;;;;;;;;28.70;99.90;;;;;;5103819;28;20266;-72
2022/08/20 11:17:59;;;;;;;;;;;28.50;99.90;;;;;;5090096;28;19911;-72
2022/08/20 11:20:25;;;;;;;;;;;28.60;99.90;;;;;;5095386;28;19912;-72
2022/08/20 11:22:51;;;;;;;;;;;28.50;99.90;;;;;;5076466;28;19916;-71
2022/08/20 11:25:17;;;;;;;;;;;28.30;99.90;;;;;;5071351;28;19932;-74
2022/08/20 11:27:45;;;;;;;;;;;27.80;99.90;;;;;;5096284;28;20703;-74
2022/08/20 11:30:28;;;;;;;;;;;27.00;99.90;;;;;;5089537;28;19966;-76
2022/08/20 11:32:54;;;;;;;;;;;26.30;99.90;;;;;;5090976;28;20479;-76
2022/08/20 11:35:22;;;;;;;;;;;25.70;99.90;;;;;;5085304;28;19955;-74
2022/08/20 11:37:51;;;;;;;;;;;25.20;99.90;;;;;;5084010;28;19928;-77
2022/08/20 11:40:17;;;;;;;;;;;23.80;99.90;;;;;;5089057;27;19958;-71
2022/08/20 11:42:43;;;;;;;;;;;23.00;99.90;;;;;;5076862;28;20399;-72
2022/08/20 11:45:09;;;;;;;;;;;22.50;99.90;;;;;;5083858;28;19916;-73
2022/08/20 11:47:36;;;;;;;;;;;22.20;99.90;;;;;;5076670;28;19958;-76
2022/08/20 11:50:03;;;;;;;;;;;22.10;99.90;;;;;;5080778;28;19923;-70
2022/08/20 11:52:29;;;;;;;;;;;22.30;99.90;;;;;;5079019;28;19912;-77
2022/08/20 11:54:55;;;;;;;;;;;22.70;99.90;;;;;;5078543;28;19916;-72
2022/08/20 11:57:22;;;;;;;;;;;22.80;99.90;;;;;;5079706;28;19924;-76
2022/08/20 11:59:51;;;;;;;;;;;23.10;99.90;;;;;;5079366;28;20345;-73
2022/08/20 12:02:16;;;;;;;;;;;23.50;99.90;;;;;;5064654;28;20007;-70
2022/08/20 12:04:42;;;;;;;;;;;23.90;99.90;;;;;;5072744;28;20007;-71
2022/08/20 12:07:09;;;;;;;;;;;24.00;99.90;;;;;;5078687;28;20058;-72
2022/08/20 12:09:35;;;;;;;;;;;24.20;99.90;;;;;;5075697;28;20002;-71
2022/08/20 12:12:00;;;;;;;;;;;24.50;99.90;;;;;;5078708;28;19999;-72
2022/08/20 12:14:26;;;;;;;;;;;24.80;99.90;;;;;;5075706;28;20096;-74
2022/08/20 12:16:51;;;;;;;;;;;25.10;99.90;;;;;;5081538;28;19925;-75
2022/08/20 12:19:17;;;;;;;;;;;25.30;99.90;;;;;;5060473;28;20385;-72
2022/08/20 12:21:43;;;;;;;;;;;25.30;99.90;;;;;;5076722;28;19923;-72
2022/08/20 12:24:09;;;;;;;;;;;25.30;99.90;;;;;;5063882;28;19982;-74
2022/08/20 12:26:34;;;;;;;;;;;25.30;99.90;;;;;;5093552;28;19951;-72
2022/08/20 12:29:00;;;;;;;;;;;25.50;99.90;;;;;;5092249;28;19909;-74
2022/08/20 12:31:25;;;;;;;;;;;25.70;99.90;;;;;;5094866;28;19912;-72
2022/08/20 12:33:51;;;;;;;;;;;25.70;99.90;;;;;;5089869;28;19914;-72
2022/08/20 12:36:16;;;;;;;;;;;25.80;99.90;;;;;;5096754;28;19959;-71
2022/08/20 12:38:42;;;;;;;;;;;26.10;99.90;;;;;;5087918;28;19951;-72
2022/08/20 12:41:08;;;;;;;;;;;26.40;99.90;;;;;;5095012;28;20020;-71
2022/08/20 12:43:33;;;;;;;;;;;26.70;99.90;;;;;;5097772;28;19916;-73
2022/08/20 12:45:59;;;;;;;;;;;26.80;99.90;;;;;;5102736;28;19946;-71
2022/08/20 12:48:24;;;;;;;;;;;27.00;99.90;;;;;;5082771;28;19913;-70
2022/08/20 12:50:51;;;;;;;;;;;27.20;99.90;;;;;;5079470;28;19913;-75
2022/08/20 12:53:17;;;;;;;;;;;27.40;99.90;;;;;;5074567;28;19943;-72
2022/08/20 12:55:43;;;;;;;;;;;27.50;99.90;;;;;;5077277;28;19962;-73
2022/08/20 12:58:09;;;;;;;;;;;27.40;99.90;;;;;;5063010;28;19912;-73
2022/08/20 13:00:36;;;;;;;;;;;27.50;99.90;;;;;;5084693;28;20310;-72
2022/08/20 13:03:03;;;;;;;;;;;27.70;99.90;;;;;;5093935;28;20003;-75
2022/08/20 13:05:29;;;;;;;;;;;27.90;99.90;;;;;;5077086;28;19912;-74
2022/08/20 13:07:55;;;;;;;;;;;27.90;99.90;;;;;;5090113;28;20250;-74
2022/08/20 13:10:25;;;;;;;;;;;28.00;99.90;;;;;;5090985;28;19916;-72
2022/08/20 13:12:51;;;;;;;;;;;28.20;99.90;;;;;;5108266;28;19912;-75
2022/08/20 13:15:17;;;;;;;;;;;28.50;99.90;;;;;;5091484;28;19956;-74
2022/08/20 13:17:43;;;;;;;;;;;28.90;99.90;;;;;;5093180;28;19922;-74
2022/08/20 13:20:13;;;;;;;;;;;29.20;99.90;;;;;;5083212;28;20373;-72
2022/08/20 13:22:39;;;;;;;;;;;29.50;99.90;;;;;;5093290;28;20531;-75
2022/08/20 13:25:05;;;;;;;;;;;29.60;99.90;;;;;;5087611;28;20155;-76
2022/08/20 13:27:31;;;;;;;;;;;29.70;99.90;;;;;;5098509;28;20284;-74
2022/08/20 13:29:57;;;;;;;;;;;29.90;99.90;;;;;;5093956;28;20036;-74
2022/08/20 13:32:23;;;;;;;;;;;30.10;99.90;;;;;;5102458;28;19977;-75
2022/08/20 13:34:49;;;;;;;;;;;30.40;99.90;;;;;;5078887;28;19912;-73
2022/08/20 13:37:19;;;;;;;;;;;30.70;99.90;;;;;;5095369;28;20003;-74
2022/08/20 13:39:45;;;;;;;;;;;30.90;99.90;;;;;;5092911;28;19913;-77
2022/08/20 13:42:11;;;;;;;;;;;31.10;99.90;;;;;;5086642;28;20303;-74
2022/08/20 13:44:37;;;;;;;;;;;31.20;99.90;;;;;;5088755;28;20451;-75
2022/08/20 13:47:25;;;;;;;;;;;31.40;99.90;;;;;;5084779;28;19916;-76
2022/08/20 13:49:55;;;;;;;;;;;31.50;99.90;;;;;;5079800;28;19958;-77
2022/08/20 13:52:21;;;;;;;;;;;31.70;99.90;;;;;;5078100;28;19963;-76
2022/08/20 13:54:46;;;;;;;;;;;31.50;99.90;;;;;;5078651;28;19952;-76
2022/08/20 13:57:13;;;;;;;;;;;31.10;99.90;;;;;;5091300;28;19935;-75
2022/08/20 13:59:40;;;;;;;;;;;30.50;99.90;;;;;;5094919;28;20503;-77
2022/08/20 14:02:07;;;;;;;;;;;30.10;99.90;;;;;;5093332;28;19922;-75
2022/08/20 14:04:32;;;;;;;;;;;29.70;99.90;;;;;;5087840;28;20467;-73
2022/08/20 14:07:07;;;;;;;;;;;29.50;99.90;;;;;;5084326;28;19920;-75
2022/08/20 14:09:32;;;;;;;;;;;29.30;99.90;;;;;;5088865;28;19916;-66
2022/08/20 14:11:58;;;;;;;;;;;29.30;99.90;;;;;;5085779;28;19918;-67
2022/08/20 14:14:23;;;;;;;;;;;29.00;99.90;;;;;;5093766;28;19951;-65
2022/08/20 14:16:49;;;;;;;;;;;28.80;99.90;;;;;;5085726;28;19912;-72
2022/08/20 14:19:15;;;;;;;;;;;28.70;99.90;;;;;;5088442;28;19912;-70